Burwash, Yukon

Past 24 Hour Conditions

This table is a summary of hourly weather conditions for the past 24 hours. This summary includes the following parameters: temperature, humidity, dew point, wind speed and direction, air pressure, visibility and/or wind chill and humidex.
Date / Time
(PDT)
Conditions Temp (°C) Humidity (%) Dew Point (°C) Wind (km/h) Pressure (kPa) Visibility (km)
22 April 2014
23:00 N/A -2   97 -3 N/A 101.0 N/A
22:00 N/A -1 92 -2 N/A 101.0 N/A
21:00 N/A 2 85 -1 N/A 101.0 N/A
20:00 N/A 2 86 0 N/A 101.0 N/A
19:00 N/A 4 72 0 N/A 101.0 N/A
18:00 N/A 5 65 -1 N/A 101.0 N/A
17:00 N/A 5 69 0 N/A 101.0 N/A
16:00 N/A 6 72 1 N/A 101.0 N/A
15:00 N/A 2 91 1 N/A 101.1 N/A
14:00 N/A 4 72 0 N/A 101.1 N/A
13:00 N/A 6 63 -1 N/A 101.1 N/A
12:00 N/A 7   46 -4 N/A 101.0 N/A
11:00 N/A 6 65 0 N/A 101.1 N/A
10:00 N/A 4 77 1 N/A 101.2 N/A
9:00 N/A 2 94 1 N/A 101.2 N/A
8:00 N/A 2 94 1 N/A 101.3 N/A
7:00 N/A 1 94 0 N/A 101.3 N/A
6:00 N/A 1 92 0 N/A 101.3 N/A
5:00 N/A 2 86 0 N/A 101.4 N/A
4:00 N/A 2 77 -1 N/A 101.4 N/A
3:00 N/A 1 82 -2 N/A 101.4 N/A
2:00 N/A 2 82 -1 N/A 101.4 N/A
1:00 N/A 4 74 0 N/A 101.4 N/A
00:00 N/A 4 71 -1 N/A 101.4 N/A
21 April 2014
23:00 N/A 4 69 -2 N/A 101.5 N/A
N/A
Not available
 ↑ 
Highest temperature
 ↓ 
Lowest temperature

If you require additional historical weather information, please visit Climate Data Online.